Hlavní strana
METAR-TAF:

METAR-TAF

Letiště :

Banja Luka, Bosna a Hercegovina

zeměpisná šířka: 44-47N, zeměpisná délka: 017-13E, výška: 156 m

Aktuální stav počasí

Zpráva byla vytvořena před 5 minutami, v 15:00 UTC
Severoseverozápadní vítr 7 kt
Teplota 7°C
Vlhkost vzduchu 76%
Tlak 1024 hPa
Viditelnost 10 km a více
Skoro jasno ve výšce 3300 ft
Oblačno až skoro zataženo ve výšce 4700 ft

METAR: LQBK 191500Z 34007KT 9999 FEW033 BKN047 07/03 Q1024 NOSIG

Čas: 16:05 (15:05 UTC)

Předpověď počasí

Zpráva byla vytvořena před 2 hodinami a 56 minutami, v 12:09 UTC
Předpověď platná od 19 v 12 UTC do 20 v 12 UTC
Severoseverovýchodní vítr 5 kt
Viditelnost 10 km a více
Polojasno ve výšce 1700 ft
Oblačno až skoro zataženo ve výšce 3500 ft
Dočasný
od 19 v 18 UTC do 20 v 08 UTC
Viditelnost: 4000 m
Oblačno až skoro zataženo ve výšce 1000 ft
Zataženo ve výšce 3000 ft
déšť, kouřmo

TAF: LQBK 191209Z 1912/2012 03005KT 9999 SCT017 BKN035 TX09/2012Z TN03/2005Z TEMPO 1918/2008 4000 RA BR BKN010 OVC030

Stav a předpovědi počasí z více než 4 000 letišť (zprávy METAR a TAF).

Červené a žluté tečky na mapě představují dostupné meteorologické stanice.

Když kurzor umístíte na tečku, zobrazí se název stanice.

Pak kliknutím zobrazíte stav a předpověď počasí.

Chcete-li změnit mapu, kliknutím na zelené tlačítko se znaménkem +mapu přiblížíte, kliknutím na zelené tlačítko se znaménkem – mapu oddálíte a kliknutím na zelené šipky přejdete na sousední mapy.


METAR-TAF: